This is the latest recevied weather packets stored in our database for station/object KN6WGU. If no packets are shown the sender has not sent any weather packets the latest 10 day(s).
| Time | Temp. | Humidity | Pressure | Rain* | Wind** | Luminosity | Snow |
|---|---|---|---|---|---|---|---|
| 1787498019 | 20.56° C | 74% | 1007 hPa | 0 mm | - | 95 W/m² | - |
| 1787497715 | 20.56° C | 75% | 1006.9 hPa | 0 mm | - | 126 W/m² | - |
| 1787497410 | 20.56° C | 74% | 1007.1 hPa | 0 mm | - | 112 W/m² | - |
| 1787497109 | 20.56° C | 75% | 1007.1 hPa | 0 mm | - | 89 W/m² | - |
| 1787496804 | 20° C | 76% | 1007.3 hPa | 0 mm | - | 110 W/m² | - |
| 1787496499 | 20.56° C | 76% | 1007 hPa | 0 mm | - | 123 W/m² | - |
| 1787496194 | 20.56° C | 75% | 1006.8 hPa | 0 mm | - | 130 W/m² | - |
| 1787495893 | 20.56° C | 75% | 1006.9 hPa | 0 mm | - | 114 W/m² | - |
| 1787495583 | 20.56° C | 75% | 1007 hPa | 0 mm | - | 104 W/m² | - |
| 1787495279 | 20.56° C | 75% | 1006.9 hPa | 0 mm | - | 135 W/m² | - |
| 1787494975 | 20.56° C | 76% | 1006.8 hPa | 0 mm | - | 112 W/m² | - |
| 1787494675 | 20.56° C | 75% | 1006.7 hPa | 0 mm | - | 111 W/m² | - |
| 1787494370 | 20.56° C | 76% | 1006.9 hPa | 0 mm | - | 84 W/m² | - |
| 1787494066 | 20.56° C | 76% | 1006.7 hPa | 0 mm | - | 110 W/m² | - |
| 1787493762 | 20.56° C | 77% | 1006.7 hPa | 0 mm | - | 112 W/m² | - |
| 1787493461 | 20° C | 77% | 1006.7 hPa | 0 mm | - | 74 W/m² | - |
| 1787493157 | 20° C | 78% | 1006.4 hPa | 0 mm | - | 100 W/m² | - |
| 1787492852 | 20° C | 78% | 1006.5 hPa | 0 mm | - | 111 W/m² | - |
| 1787492549 | 20° C | 78% | 1006.6 hPa | 0 mm | - | 100 W/m² | - |
| 1787492244 | 20° C | 78% | 1006.4 hPa | 0 mm | - | 88 W/m² | - |
| 1787491940 | 20° C | 78% | 1006.4 hPa | 0 mm | - | 89 W/m² | - |
| 1787491640 | 20° C | 79% | 1006.4 hPa | 0 mm | - | 107 W/m² | - |
| 1787491335 | 20° C | 78% | 1006.6 hPa | 0 mm | - | 78 W/m² | - |
| 1787491031 | 20° C | 79% | 1006.5 hPa | 0 mm | - | 73 W/m² | - |
| 1787490727 | 20° C | 80% | 1006.3 hPa | 0 mm | - | 113 W/m² | - |
* Rain latest hour (hover to see other rain measurements)
** Current wind speed in m/s (hover to see current wind gust speed)